sensor_id;sensor_type;location;lat;lon;timestamp;pressure;altitude;pressure_sealevel;temperature
73673;BMP280;61972;19.480;-99.240;2022-07-03T08:21:23;77836.41;;;27.79
73673;BMP280;61972;19.480;-99.240;2022-07-03T08:23:49;77833.84;;;27.62
73673;BMP280;61972;19.480;-99.240;2022-07-03T08:26:16;77833.16;;;27.42
73673;BMP280;61972;19.480;-99.240;2022-07-03T08:29:25;77841.41;;;27.40
73673;BMP280;61972;19.480;-99.240;2022-07-03T08:31:54;77845.88;;;27.27
73673;BMP280;61972;19.480;-99.240;2022-07-03T08:34:20;77838.97;;;27.25
73673;BMP280;61972;19.480;-99.240;2022-07-03T08:36:46;77838.28;;;27.22
73673;BMP280;61972;19.480;-99.240;2022-07-03T09:11:53;77828.81;;;28.83
73673;BMP280;61972;19.480;-99.240;2022-07-03T09:14:20;77823.75;;;28.50
73673;BMP280;61972;19.480;-99.240;2022-07-03T09:16:50;77818.41;;;28.30
73673;BMP280;61972;19.480;-99.240;2022-07-03T09:19:40;77821.78;;;27.80
73673;BMP280;61972;19.480;-99.240;2022-07-03T09:22:30;77837.22;;;27.48
73673;BMP280;61972;19.480;-99.240;2022-07-03T09:25:13;77838.72;;;27.30
73673;BMP280;61972;19.480;-99.240;2022-07-03T09:27:50;77836.81;;;27.16
73673;BMP280;61972;19.480;-99.240;2022-07-03T09:30:16;77837.94;;;27.17
73673;BMP280;61972;19.480;-99.240;2022-07-03T09:32:45;77838.72;;;27.13
73673;BMP280;61972;19.480;-99.240;2022-07-03T09:35:25;77839.69;;;26.94
73673;BMP280;61972;19.480;-99.240;2022-07-03T09:38:02;77835.84;;;26.84
73673;BMP280;61972;19.480;-99.240;2022-07-03T09:40:48;77832.03;;;26.73
73673;BMP280;61972;19.480;-99.240;2022-07-03T09:43:15;77841.63;;;26.67
73673;BMP280;61972;19.480;-99.240;2022-07-03T09:45:58;77831.41;;;26.63
73673;BMP280;61972;19.480;-99.240;2022-07-03T09:48:29;77852.38;;;26.63
73673;BMP280;61972;19.480;-99.240;2022-07-03T09:51:20;77844.50;;;26.63
73673;BMP280;61972;19.480;-99.240;2022-07-03T09:53:59;77845.44;;;26.61
73673;BMP280;61972;19.480;-99.240;2022-07-03T09:56:33;77848.47;;;26.59
73673;BMP280;61972;19.480;-99.240;2022-07-03T09:59:13;77848.47;;;26.59
73673;BMP280;61972;19.480;-99.240;2022-07-03T10:01:43;77850.50;;;26.58
73673;BMP280;61972;19.480;-99.240;2022-07-03T10:07:08;77853.13;;;26.58
73673;BMP280;61972;19.480;-99.240;2022-07-03T10:09:35;77853.13;;;26.58
73673;BMP280;61972;19.480;-99.240;2022-07-03T10:12:02;77850.50;;;26.58
73673;BMP280;61972;19.480;-99.240;2022-07-03T10:14:30;77846.22;;;26.57
73673;BMP280;61972;19.480;-99.240;2022-07-03T10:16:57;77840.97;;;26.57
73673;BMP280;61972;19.480;-99.240;2022-07-03T10:19:30;77845.69;;;26.56
73673;BMP280;61972;19.480;-99.240;2022-07-03T10:22:00;77845.69;;;26.56
73673;BMP280;61972;19.480;-99.240;2022-07-03T10:24:29;77839.88;;;26.56
73673;BMP280;61972;19.480;-99.240;2022-07-03T10:26:56;77838.75;;;26.55
73673;BMP280;61972;19.480;-99.240;2022-07-03T10:29:25;77847.56;;;26.53
73673;BMP280;61972;19.480;-99.240;2022-07-03T10:31:52;77847.97;;;26.51
73673;BMP280;61972;19.480;-99.240;2022-07-03T10:34:20;77847.56;;;26.53
73673;BMP280;61972;19.480;-99.240;2022-07-03T10:36:59;77852.81;;;26.53
73673;BMP280;61972;19.480;-99.240;2022-07-03T10:39:47;77850.03;;;26.51
73673;BMP280;61972;19.480;-99.240;2022-07-03T10:42:21;77852.09;;;26.50
73673;BMP280;61972;19.480;-99.240;2022-07-03T10:45:10;77849.47;;;26.50
73673;BMP280;61972;19.480;-99.240;2022-07-03T10:50:23;77856.22;;;26.49
73673;BMP280;61972;19.480;-99.240;2022-07-03T10:52:50;77861.84;;;26.47
73673;BMP280;61972;19.480;-99.240;2022-07-03T10:55:17;77858.13;;;26.46
73673;BMP280;61972;19.480;-99.240;2022-07-03T10:58:09;77869.00;;;26.44
73673;BMP280;61972;19.480;-99.240;2022-07-03T11:00:52;77870.66;;;26.46
73673;BMP280;61972;19.480;-99.240;2022-07-03T11:06:22;77865.66;;;26.41
73673;BMP280;61972;19.480;-99.240;2022-07-03T11:09:04;77871.44;;;26.42
73673;BMP280;61972;19.480;-99.240;2022-07-03T11:11:43;77871.84;;;26.39
73673;BMP280;61972;19.480;-99.240;2022-07-03T11:14:23;77872.78;;;26.38
73673;BMP280;61972;19.480;-99.240;2022-07-03T11:19:45;77870.16;;;26.38
73673;BMP280;61972;19.480;-99.240;2022-07-03T11:25:17;77869.03;;;26.37
73673;BMP280;61972;19.480;-99.240;2022-07-03T11:27:43;77864.19;;;26.35
73673;BMP280;61972;19.480;-99.240;2022-07-03T11:30:09;77871.91;;;26.32
73673;BMP280;61972;19.480;-99.240;2022-07-03T11:32:45;77867.22;;;26.33
73673;BMP280;61972;19.480;-99.240;2022-07-03T11:38:21;77867.59;;;26.31
73673;BMP280;61972;19.480;-99.240;2022-07-03T11:40:50;77870.63;;;26.29
73673;BMP280;61972;19.480;-99.240;2022-07-03T11:43:17;77869.09;;;26.30
73673;BMP280;61972;19.480;-99.240;2022-07-03T11:45:46;77867.59;;;26.31
73673;BMP280;61972;19.480;-99.240;2022-07-03T11:48:14;77873.78;;;26.29
73673;BMP280;61972;19.480;-99.240;2022-07-03T11:50:43;77872.13;;;26.28
73673;BMP280;61972;19.480;-99.240;2022-07-03T11:53:24;77874.59;;;26.25
73673;BMP280;61972;19.480;-99.240;2022-07-03T11:55:55;77871.22;;;26.22
73673;BMP280;61972;19.480;-99.240;2022-07-03T11:58:22;77870.72;;;26.63
73673;BMP280;61972;19.480;-99.240;2022-07-03T19:30:26;77809.09;;;30.90
73673;BMP280;61972;19.480;-99.240;2022-07-03T19:35:14;77801.00;;;30.33
73673;BMP280;61972;19.480;-99.240;2022-07-03T19:37:40;77787.81;;;29.72
73673;BMP280;61972;19.480;-99.240;2022-07-03T19:40:07;77792.31;;;29.47
73673;BMP280;61972;19.480;-99.240;2022-07-03T19:42:35;77792.31;;;29.37
73673;BMP280;61972;19.480;-99.240;2022-07-03T19:45:10;77788.44;;;29.34
73673;BMP280;61972;19.480;-99.240;2022-07-03T19:47:36;77782.06;;;29.33
73673;BMP280;61972;19.480;-99.240;2022-07-03T19:50:03;77784.25;;;29.35
73673;BMP280;61972;19.480;-99.240;2022-07-03T19:52:31;77772.38;;;29.38
73673;BMP280;61972;19.480;-99.240;2022-07-03T19:54:57;77765.72;;;29.42
73673;BMP280;61972;19.480;-99.240;2022-07-03T19:57:23;77763.34;;;29.47
73673;BMP280;61972;19.480;-99.240;2022-07-03T19:59:50;77764.72;;;29.53
73673;BMP280;61972;19.480;-99.240;2022-07-03T20:02:16;77757.09;;;29.58
73673;BMP280;61972;19.480;-99.240;2022-07-03T20:04:42;77748.91;;;29.63
73673;BMP280;61972;19.480;-99.240;2022-07-03T20:07:08;77749.72;;;29.69
73673;BMP280;61972;19.480;-99.240;2022-07-03T20:09:35;77743.63;;;29.73
73673;BMP280;61972;19.480;-99.240;2022-07-03T20:12:01;77741.81;;;29.78
73673;BMP280;61972;19.480;-99.240;2022-07-03T20:14:30;77740.41;;;29.82
73673;BMP280;61972;19.480;-99.240;2022-07-03T20:16:56;77736.94;;;29.86
73673;BMP280;61972;19.480;-99.240;2022-07-03T20:19:22;77729.84;;;29.92
73673;BMP280;61972;19.480;-99.240;2022-07-03T20:21:48;77733.72;;;29.95
73673;BMP280;61972;19.480;-99.240;2022-07-03T20:24:15;77729.13;;;29.99
73673;BMP280;61972;19.480;-99.240;2022-07-03T20:27:00;77720.78;;;30.01
73673;BMP280;61972;19.480;-99.240;2022-07-03T20:29:26;77725.78;;;30.05
73673;BMP280;61972;19.480;-99.240;2022-07-03T20:31:53;77712.31;;;30.10
73673;BMP280;61972;19.480;-99.240;2022-07-03T20:34:20;77703.00;;;30.13
73673;BMP280;61972;19.480;-99.240;2022-07-03T20:36:46;77706.44;;;30.19
73673;BMP280;61972;19.480;-99.240;2022-07-03T20:39:23;77702.38;;;30.23
73673;BMP280;61972;19.480;-99.240;2022-07-03T20:41:50;77696.69;;;30.25
73673;BMP280;61972;19.480;-99.240;2022-07-03T20:44:18;77692.63;;;30.28
73673;BMP280;61972;19.480;-99.240;2022-07-03T20:46:48;77685.00;;;30.33
73673;BMP280;61972;19.480;-99.240;2022-07-03T20:49:17;77689.41;;;30.38
73673;BMP280;61972;19.480;-99.240;2022-07-03T20:51:44;77682.16;;;30.41
73673;BMP280;61972;19.480;-99.240;2022-07-03T20:54:19;77683.28;;;30.42
73673;BMP280;61972;19.480;-99.240;2022-07-03T20:56:54;77679.38;;;30.48
73673;BMP280;61972;19.480;-99.240;2022-07-03T20:59:23;77682.81;;;30.53
73673;BMP280;61972;19.480;-99.240;2022-07-03T21:01:49;77679.84;;;30.58
73673;BMP280;61972;19.480;-99.240;2022-07-03T21:04:15;77677.31;;;30.61
73673;BMP280;61972;19.480;-99.240;2022-07-03T21:06:44;77676.47;;;30.65
73673;BMP280;61972;19.480;-99.240;2022-07-03T21:09:10;77668.69;;;30.67
73673;BMP280;61972;19.480;-99.240;2022-07-03T21:11:45;77672.56;;;30.71
73673;BMP280;61972;19.480;-99.240;2022-07-03T21:14:14;77660.59;;;30.74
73673;BMP280;61972;19.480;-99.240;2022-07-03T21:16:44;77658.63;;;30.78
73673;BMP280;61972;19.480;-99.240;2022-07-03T21:19:16;77660.81;;;30.80
73673;BMP280;61972;19.480;-99.240;2022-07-03T21:21:44;77658.31;;;30.82
73673;BMP280;61972;19.480;-99.240;2022-07-03T21:24:19;77650.41;;;30.82
73673;BMP280;61972;19.480;-99.240;2022-07-03T21:26:48;77644.13;;;30.84
73673;BMP280;61972;19.480;-99.240;2022-07-03T21:29:15;77632.59;;;30.85
73673;BMP280;61972;19.480;-99.240;2022-07-03T21:31:42;77628.53;;;30.89
73673;BMP280;61972;19.480;-99.240;2022-07-03T21:34:09;77616.56;;;30.92
73673;BMP280;61972;19.480;-99.240;2022-07-03T21:36:40;77607.78;;;30.97
73673;BMP280;61972;19.480;-99.240;2022-07-03T21:39:06;77607.34;;;30.99
73673;BMP280;61972;19.480;-99.240;2022-07-03T21:41:32;77613.16;;;30.99
73673;BMP280;61972;19.480;-99.240;2022-07-03T21:44:03;77610.09;;;31.01
73673;BMP280;61972;19.480;-99.240;2022-07-03T21:46:30;77609.09;;;31.03
73673;BMP280;61972;19.480;-99.240;2022-07-03T21:48:58;77604.50;;;31.06
73673;BMP280;61972;19.480;-99.240;2022-07-03T21:51:25;77607.25;;;31.08
73673;BMP280;61972;19.480;-99.240;2022-07-03T21:53:53;77604.75;;;31.11
73673;BMP280;61972;19.480;-99.240;2022-07-03T21:56:23;77598.03;;;31.15
73673;BMP280;61972;19.480;-99.240;2022-07-03T21:58:49;77589.69;;;31.17
73673;BMP280;61972;19.480;-99.240;2022-07-03T22:01:15;77588.16;;;31.18
73673;BMP280;61972;19.480;-99.240;2022-07-03T22:03:41;77587.69;;;31.20
73673;BMP280;61972;19.480;-99.240;2022-07-03T22:06:07;77585.19;;;31.22
73673;BMP280;61972;19.480;-99.240;2022-07-03T22:08:33;77577.91;;;31.25
73673;BMP280;61972;19.480;-99.240;2022-07-03T22:10:59;77581.22;;;31.28
73673;BMP280;61972;19.480;-99.240;2022-07-03T22:13:31;77572.84;;;31.30
73673;BMP280;61972;19.480;-99.240;2022-07-03T22:15:58;77566.59;;;31.32
73673;BMP280;61972;19.480;-99.240;2022-07-03T22:18:24;77569.88;;;31.35
73673;BMP280;61972;19.480;-99.240;2022-07-03T22:20:50;77571.09;;;31.39
73673;BMP280;61972;19.480;-99.240;2022-07-03T22:23:20;77558.56;;;31.42
73673;BMP280;61972;19.480;-99.240;2022-07-03T22:25:46;77558.22;;;31.46
73673;BMP280;61972;19.480;-99.240;2022-07-03T22:28:15;77548.75;;;31.47
73673;BMP280;61972;19.480;-99.240;2022-07-03T22:30:41;77544.13;;;31.50
73673;BMP280;61972;19.480;-99.240;2022-07-03T22:33:12;77541.50;;;31.50
73673;BMP280;61972;19.480;-99.240;2022-07-03T22:35:38;77541.50;;;31.50
73673;BMP280;61972;19.480;-99.240;2022-07-03T22:38:04;77537.97;;;31.55
73673;BMP280;61972;19.480;-99.240;2022-07-03T22:40:31;77544.47;;;31.58
73673;BMP280;61972;19.480;-99.240;2022-07-03T22:42:59;77538.72;;;31.60
73673;BMP280;61972;19.480;-99.240;2022-07-03T22:45:26;77543.59;;;31.62
73673;BMP280;61972;19.480;-99.240;2022-07-03T22:47:52;77543.69;;;31.65
73673;BMP280;61972;19.480;-99.240;2022-07-03T22:50:18;77537.97;;;31.67
73673;BMP280;61972;19.480;-99.240;2022-07-03T22:52:44;77547.97;;;31.66
73673;BMP280;61972;19.480;-99.240;2022-07-03T22:55:10;77541.72;;;31.68
73673;BMP280;61972;19.480;-99.240;2022-07-03T22:57:36;77540.16;;;31.69
73673;BMP280;61972;19.480;-99.240;2022-07-03T23:00:03;77532.88;;;31.72
73673;BMP280;61972;19.480;-99.240;2022-07-03T23:02:29;77530.47;;;31.77
73673;BMP280;61972;19.480;-99.240;2022-07-03T23:04:55;77531.22;;;31.83
73673;BMP280;61972;19.480;-99.240;2022-07-03T23:07:21;77525.50;;;31.85
73673;BMP280;61972;19.480;-99.240;2022-07-03T23:09:51;77533.53;;;31.87
73673;BMP280;61972;19.480;-99.240;2022-07-03T23:12:17;77535.72;;;31.89
73673;BMP280;61972;19.480;-99.240;2022-07-03T23:14:43;77535.72;;;31.89
73673;BMP280;61972;19.480;-99.240;2022-07-03T23:17:09;77534.63;;;31.88
73673;BMP280;61972;19.480;-99.240;2022-07-03T23:19:35;77541.38;;;31.85
73673;BMP280;61972;19.480;-99.240;2022-07-03T23:22:01;77561.94;;;31.84
73673;BMP280;61972;19.480;-99.240;2022-07-03T23:24:28;77558.75;;;31.84
73673;BMP280;61972;19.480;-99.240;2022-07-03T23:26:54;77554.00;;;31.84
73673;BMP280;61972;19.480;-99.240;2022-07-03T23:29:20;77557.22;;;31.85
73673;BMP280;61972;19.480;-99.240;2022-07-03T23:31:46;77556.66;;;31.84
73673;BMP280;61972;19.480;-99.240;2022-07-03T23:34:12;77560.84;;;31.83
73673;BMP280;61972;19.480;-99.240;2022-07-03T23:36:38;77566.69;;;31.84
73673;BMP280;61972;19.480;-99.240;2022-07-03T23:39:04;77566.13;;;31.83
73673;BMP280;61972;19.480;-99.240;2022-07-03T23:41:30;77565.56;;;31.83
73673;BMP280;61972;19.480;-99.240;2022-07-03T23:43:57;77571.41;;;31.83
73673;BMP280;61972;19.480;-99.240;2022-07-03T23:46:23;77571.41;;;31.83
73673;BMP280;61972;19.480;-99.240;2022-07-03T23:48:49;77572.50;;;31.84
73673;BMP280;61972;19.480;-99.240;2022-07-03T23:51:33;77574.06;;;31.83
73673;BMP280;61972;19.480;-99.240;2022-07-03T23:54:00;77575.63;;;31.82
73673;BMP280;61972;19.480;-99.240;2022-07-03T23:56:26;77567.69;;;31.82
73673;BMP280;61972;19.480;-99.240;2022-07-03T23:58:52;77562.94;;;31.83
